Baton, North Carolina
Current Conditions -  °F | °C
As of 5:53 AM on Wednesday 26 Nov 2014 (Local Time) from KHKY Reporting Station
Light Rain Light Rain  
Wind Chill: 40°   Ceiling: 300
Heat Index: 43°   Visibility: 6mi
Dew Point: 42°   Wind: 5mph
Humidity: 97%   Direction: 80°E
Pressure: 29.95"   Gusts: NA
Location:  35.83°N, 81.4147°W
Report Text: KHKY 261053Z AUTO 08004KT 6SM -RA BR BKN003 OVC055 06/06 A2995 RMK AO2 SLP133 P0009 T00610056
Loading
Personal Weather Stations






























Interactive Weather Map New forecast layout! Learn more

10-Day Weather Forecast

Advertisements
Track Severe Weather on mobile